sensor_id;sensor_type;location;lat;lon;timestamp;temperature;humidity
3478;DHT22;37937;61.490;23.506;2023-01-15T00:02:05;2.00;99.90
3478;DHT22;37937;61.490;23.506;2023-01-15T00:04:31;2.00;99.90
3478;DHT22;37937;61.490;23.506;2023-01-15T00:06:57;2.00;99.90
3478;DHT22;37937;61.490;23.506;2023-01-15T00:09:22;2.00;99.90
3478;DHT22;37937;61.490;23.506;2023-01-15T00:11:48;2.00;99.90
3478;DHT22;37937;61.490;23.506;2023-01-15T00:14:14;2.00;99.90
3478;DHT22;37937;61.490;23.506;2023-01-15T00:16:39;2.00;99.90
3478;DHT22;37937;61.490;23.506;2023-01-15T00:19:05;2.00;99.90
3478;DHT22;37937;61.490;23.506;2023-01-15T00:21:33;2.00;99.90
3478;DHT22;37937;61.490;23.506;2023-01-15T00:23:58;2.00;99.90
3478;DHT22;37937;61.490;23.506;2023-01-15T00:26:43;2.00;99.90
3478;DHT22;37937;61.490;23.506;2023-01-15T00:29:27;2.00;99.90
3478;DHT22;37937;61.490;23.506;2023-01-15T00:34:18;2.00;99.90
3478;DHT22;37937;61.490;23.506;2023-01-15T00:36:44;2.00;99.90
3478;DHT22;37937;61.490;23.506;2023-01-15T00:39:10;2.00;99.90
3478;DHT22;37937;61.490;23.506;2023-01-15T00:41:35;2.00;99.90
3478;DHT22;37937;61.490;23.506;2023-01-15T00:44:01;2.00;99.90
3478;DHT22;37937;61.490;23.506;2023-01-15T00:46:26;2.00;99.90
3478;DHT22;37937;61.490;23.506;2023-01-15T00:48:52;2.00;99.90
3478;DHT22;37937;61.490;23.506;2023-01-15T00:51:18;1.90;99.90
3478;DHT22;37937;61.490;23.506;2023-01-15T00:53:43;1.90;99.90
3478;DHT22;37937;61.490;23.506;2023-01-15T00:56:09;1.90;99.90
3478;DHT22;37937;61.490;23.506;2023-01-15T00:58:34;1.90;99.90
3478;DHT22;37937;61.490;23.506;2023-01-15T01:01:00;1.90;99.90
3478;DHT22;37937;61.490;23.506;2023-01-15T01:03:26;1.90;99.90
3478;DHT22;37937;61.490;23.506;2023-01-15T01:05:52;1.90;99.90
3478;DHT22;37937;61.490;23.506;2023-01-15T01:08:17;1.90;99.90
3478;DHT22;37937;61.490;23.506;2023-01-15T01:10:43;1.90;99.90
3478;DHT22;37937;61.490;23.506;2023-01-15T01:13:09;1.90;99.90
3478;DHT22;37937;61.490;23.506;2023-01-15T01:15:35;1.90;99.90
3478;DHT22;37937;61.490;23.506;2023-01-15T01:18:02;1.90;99.90
3478;DHT22;37937;61.490;23.506;2023-01-15T01:20:27;2.00;99.90
3478;DHT22;37937;61.490;23.506;2023-01-15T01:22:54;2.00;99.90
3478;DHT22;37937;61.490;23.506;2023-01-15T01:25:20;2.00;99.90
3478;DHT22;37937;61.490;23.506;2023-01-15T01:27:46;2.00;99.90
3478;DHT22;37937;61.490;23.506;2023-01-15T01:30:12;2.00;99.90
3478;DHT22;37937;61.490;23.506;2023-01-15T01:32:38;2.00;99.90
3478;DHT22;37937;61.490;23.506;2023-01-15T01:35:04;2.00;99.90
3478;DHT22;37937;61.490;23.506;2023-01-15T01:37:29;2.00;99.90
3478;DHT22;37937;61.490;23.506;2023-01-15T01:39:55;2.00;99.90
3478;DHT22;37937;61.490;23.506;2023-01-15T01:42:21;2.10;99.90
3478;DHT22;37937;61.490;23.506;2023-01-15T01:47:13;2.10;99.90
3478;DHT22;37937;61.490;23.506;2023-01-15T01:49:39;2.10;99.90
3478;DHT22;37937;61.490;23.506;2023-01-15T01:52:08;2.00;99.90
3478;DHT22;37937;61.490;23.506;2023-01-15T01:54:35;2.10;99.90
3478;DHT22;37937;61.490;23.506;2023-01-15T01:57:02;2.00;99.90
3478;DHT22;37937;61.490;23.506;2023-01-15T01:59:29;2.10;99.90
3478;DHT22;37937;61.490;23.506;2023-01-15T02:01:55;2.10;99.90
3478;DHT22;37937;61.490;23.506;2023-01-15T02:04:21;2.10;99.90
3478;DHT22;37937;61.490;23.506;2023-01-15T02:06:50;2.10;99.90
3478;DHT22;37937;61.490;23.506;2023-01-15T02:09:15;2.10;99.90
3478;DHT22;37937;61.490;23.506;2023-01-15T02:11:41;2.10;99.90
3478;DHT22;37937;61.490;23.506;2023-01-15T02:14:12;2.10;99.90
3478;DHT22;37937;61.490;23.506;2023-01-15T02:16:46;2.10;99.90
3478;DHT22;37937;61.490;23.506;2023-01-15T02:21:56;2.10;99.90
3478;DHT22;37937;61.490;23.506;2023-01-15T02:32:12;2.10;99.90
3478;DHT22;37937;61.490;23.506;2023-01-15T02:34:42;2.10;99.90
3478;DHT22;37937;61.490;23.506;2023-01-15T02:37:10;2.10;99.90
3478;DHT22;37937;61.490;23.506;2023-01-15T02:39:37;2.10;99.90
3478;DHT22;37937;61.490;23.506;2023-01-15T02:42:04;2.10;99.90
3478;DHT22;37937;61.490;23.506;2023-01-15T02:44:32;2.10;99.90
3478;DHT22;37937;61.490;23.506;2023-01-15T02:47:00;2.10;99.90
3478;DHT22;37937;61.490;23.506;2023-01-15T02:49:28;2.10;99.90
3478;DHT22;37937;61.490;23.506;2023-01-15T02:51:57;2.10;99.90
3478;DHT22;37937;61.490;23.506;2023-01-15T02:54:26;2.10;99.90
3478;DHT22;37937;61.490;23.506;2023-01-15T02:56:53;2.10;99.90
3478;DHT22;37937;61.490;23.506;2023-01-15T02:59:24;2.10;99.90
3478;DHT22;37937;61.490;23.506;2023-01-15T03:01:56;2.10;99.90
3478;DHT22;37937;61.490;23.506;2023-01-15T03:06:54;2.00;99.90
3478;DHT22;37937;61.490;23.506;2023-01-15T03:09:23;2.10;99.90
3478;DHT22;37937;61.490;23.506;2023-01-15T03:14:38;2.10;99.90
3478;DHT22;37937;61.490;23.506;2023-01-15T03:17:08;2.10;99.90
3478;DHT22;37937;61.490;23.506;2023-01-15T03:19:47;2.10;99.90
3478;DHT22;37937;61.490;23.506;2023-01-15T03:24:45;2.10;99.90
3478;DHT22;37937;61.490;23.506;2023-01-15T03:27:11;2.10;99.90
3478;DHT22;37937;61.490;23.506;2023-01-15T03:29:38;2.10;99.90
3478;DHT22;37937;61.490;23.506;2023-01-15T03:32:05;2.10;99.90
3478;DHT22;37937;61.490;23.506;2023-01-15T03:34:40;2.10;99.90
3478;DHT22;37937;61.490;23.506;2023-01-15T03:37:06;2.10;99.90
3478;DHT22;37937;61.490;23.506;2023-01-15T03:39:32;2.10;99.90
3478;DHT22;37937;61.490;23.506;2023-01-15T03:49:55;2.00;99.90
3478;DHT22;37937;61.490;23.506;2023-01-15T03:54:52;2.00;99.90
3478;DHT22;37937;61.490;23.506;2023-01-15T03:59:50;2.00;99.90
3478;DHT22;37937;61.490;23.506;2023-01-15T04:02:17;2.00;99.90
3478;DHT22;37937;61.490;23.506;2023-01-15T04:04:44;2.00;99.90
3478;DHT22;37937;61.490;23.506;2023-01-15T04:07:10;2.00;99.90
3478;DHT22;37937;61.490;23.506;2023-01-15T04:09:37;2.00;99.90
3478;DHT22;37937;61.490;23.506;2023-01-15T04:12:03;2.00;99.90
3478;DHT22;37937;61.490;23.506;2023-01-15T04:14:29;2.00;99.90
3478;DHT22;37937;61.490;23.506;2023-01-15T04:16:55;2.00;99.90
3478;DHT22;37937;61.490;23.506;2023-01-15T04:19:21;2.00;99.90
3478;DHT22;37937;61.490;23.506;2023-01-15T04:21:47;2.00;99.90
3478;DHT22;37937;61.490;23.506;2023-01-15T04:24:12;2.00;99.90
3478;DHT22;37937;61.490;23.506;2023-01-15T04:26:38;2.00;99.90
3478;DHT22;37937;61.490;23.506;2023-01-15T04:29:03;2.00;99.90
3478;DHT22;37937;61.490;23.506;2023-01-15T04:31:29;2.00;99.90
3478;DHT22;37937;61.490;23.506;2023-01-15T04:33:58;2.00;99.90
3478;DHT22;37937;61.490;23.506;2023-01-15T04:36:23;2.00;99.90
3478;DHT22;37937;61.490;23.506;2023-01-15T04:38:49;2.00;99.90
3478;DHT22;37937;61.490;23.506;2023-01-15T04:41:14;2.00;99.90
3478;DHT22;37937;61.490;23.506;2023-01-15T04:43:58;2.00;99.90
3478;DHT22;37937;61.490;23.506;2023-01-15T04:46:38;2.00;99.90
3478;DHT22;37937;61.490;23.506;2023-01-15T04:49:04;2.00;99.90
3478;DHT22;37937;61.490;23.506;2023-01-15T04:51:30;2.00;99.90
3478;DHT22;37937;61.490;23.506;2023-01-15T04:53:56;2.00;99.90
3478;DHT22;37937;61.490;23.506;2023-01-15T04:56:22;2.00;99.90
3478;DHT22;37937;61.490;23.506;2023-01-15T04:58:47;2.00;99.90
3478;DHT22;37937;61.490;23.506;2023-01-15T05:01:14;2.00;99.90
3478;DHT22;37937;61.490;23.506;2023-01-15T05:03:40;2.10;99.90
3478;DHT22;37937;61.490;23.506;2023-01-15T05:06:06;2.10;99.90
3478;DHT22;37937;61.490;23.506;2023-01-15T05:08:32;2.10;99.90
3478;DHT22;37937;61.490;23.506;2023-01-15T05:11:01;2.10;99.90
3478;DHT22;37937;61.490;23.506;2023-01-15T05:13:28;2.10;99.90
3478;DHT22;37937;61.490;23.506;2023-01-15T05:15:54;2.10;99.90
3478;DHT22;37937;61.490;23.506;2023-01-15T05:18:20;2.10;99.90
3478;DHT22;37937;61.490;23.506;2023-01-15T05:20:45;2.10;99.90
3478;DHT22;37937;61.490;23.506;2023-01-15T05:23:11;2.10;99.90
3478;DHT22;37937;61.490;23.506;2023-01-15T05:25:37;2.10;99.90
3478;DHT22;37937;61.490;23.506;2023-01-15T05:28:02;2.10;99.90
3478;DHT22;37937;61.490;23.506;2023-01-15T05:30:28;2.10;99.90
3478;DHT22;37937;61.490;23.506;2023-01-15T05:32:54;2.20;99.90
3478;DHT22;37937;61.490;23.506;2023-01-15T05:35:20;2.20;99.90
3478;DHT22;37937;61.490;23.506;2023-01-15T05:37:45;2.10;99.90
3478;DHT22;37937;61.490;23.506;2023-01-15T05:40:11;2.20;99.90
3478;DHT22;37937;61.490;23.506;2023-01-15T05:42:36;2.10;99.90
3478;DHT22;37937;61.490;23.506;2023-01-15T05:45:02;2.20;99.90
3478;DHT22;37937;61.490;23.506;2023-01-15T05:47:28;2.10;99.90
3478;DHT22;37937;61.490;23.506;2023-01-15T05:49:54;2.20;99.90
3478;DHT22;37937;61.490;23.506;2023-01-15T05:52:19;2.20;99.90
3478;DHT22;37937;61.490;23.506;2023-01-15T05:54:45;2.20;99.90
3478;DHT22;37937;61.490;23.506;2023-01-15T05:57:11;2.20;99.90
3478;DHT22;37937;61.490;23.506;2023-01-15T05:59:37;2.20;99.90
3478;DHT22;37937;61.490;23.506;2023-01-15T06:02:03;2.20;99.90
3478;DHT22;37937;61.490;23.506;2023-01-15T06:04:28;2.20;99.90
3478;DHT22;37937;61.490;23.506;2023-01-15T06:06:54;2.20;99.90
3478;DHT22;37937;61.490;23.506;2023-01-15T06:09:20;2.20;99.90
3478;DHT22;37937;61.490;23.506;2023-01-15T06:11:47;2.10;99.90
3478;DHT22;37937;61.490;23.506;2023-01-15T06:14:13;2.10;99.90
3478;DHT22;37937;61.490;23.506;2023-01-15T06:16:38;2.10;99.90
3478;DHT22;37937;61.490;23.506;2023-01-15T06:19:05;2.20;99.90
3478;DHT22;37937;61.490;23.506;2023-01-15T06:21:31;2.10;99.90
3478;DHT22;37937;61.490;23.506;2023-01-15T06:23:57;2.10;99.90
3478;DHT22;37937;61.490;23.506;2023-01-15T06:26:22;2.10;99.90
3478;DHT22;37937;61.490;23.506;2023-01-15T06:28:48;2.20;99.90
3478;DHT22;37937;61.490;23.506;2023-01-15T06:31:15;2.20;99.90
3478;DHT22;37937;61.490;23.506;2023-01-15T06:33:41;2.20;99.90
3478;DHT22;37937;61.490;23.506;2023-01-15T06:36:08;2.20;99.90
3478;DHT22;37937;61.490;23.506;2023-01-15T06:38:35;2.20;99.90
3478;DHT22;37937;61.490;23.506;2023-01-15T06:41:00;2.20;99.90
3478;DHT22;37937;61.490;23.506;2023-01-15T06:43:26;2.20;99.90
3478;DHT22;37937;61.490;23.506;2023-01-15T06:46:11;2.20;99.90
3478;DHT22;37937;61.490;23.506;2023-01-15T06:48:55;2.20;99.90
3478;DHT22;37937;61.490;23.506;2023-01-15T06:51:21;2.20;99.90
3478;DHT22;37937;61.490;23.506;2023-01-15T06:53:46;2.20;99.90
3478;DHT22;37937;61.490;23.506;2023-01-15T06:56:12;2.20;99.90
3478;DHT22;37937;61.490;23.506;2023-01-15T06:58:39;2.20;99.90
3478;DHT22;37937;61.490;23.506;2023-01-15T07:01:06;2.20;99.90
3478;DHT22;37937;61.490;23.506;2023-01-15T07:03:32;2.20;99.90
3478;DHT22;37937;61.490;23.506;2023-01-15T07:05:58;2.20;99.90
3478;DHT22;37937;61.490;23.506;2023-01-15T07:08:23;2.20;99.90
3478;DHT22;37937;61.490;23.506;2023-01-15T07:10:49;2.20;99.90
3478;DHT22;37937;61.490;23.506;2023-01-15T07:13:14;2.20;99.90
3478;DHT22;37937;61.490;23.506;2023-01-15T07:15:40;2.20;99.90
3478;DHT22;37937;61.490;23.506;2023-01-15T07:18:06;2.20;99.90
3478;DHT22;37937;61.490;23.506;2023-01-15T07:20:31;2.20;99.90
3478;DHT22;37937;61.490;23.506;2023-01-15T07:22:57;2.20;99.90
3478;DHT22;37937;61.490;23.506;2023-01-15T07:25:23;2.20;99.90
3478;DHT22;37937;61.490;23.506;2023-01-15T07:27:48;2.20;99.90
3478;DHT22;37937;61.490;23.506;2023-01-15T07:30:14;2.20;99.90
3478;DHT22;37937;61.490;23.506;2023-01-15T07:32:40;2.20;99.90
3478;DHT22;37937;61.490;23.506;2023-01-15T07:35:05;2.20;99.90
3478;DHT22;37937;61.490;23.506;2023-01-15T07:37:31;2.20;99.90
3478;DHT22;37937;61.490;23.506;2023-01-15T07:39:56;2.20;99.90
3478;DHT22;37937;61.490;23.506;2023-01-15T07:42:22;2.20;99.90
3478;DHT22;37937;61.490;23.506;2023-01-15T07:45:07;2.20;99.90
3478;DHT22;37937;61.490;23.506;2023-01-15T07:47:52;2.20;99.90
3478;DHT22;37937;61.490;23.506;2023-01-15T07:50:36;2.20;99.90
3478;DHT22;37937;61.490;23.506;2023-01-15T07:53:02;2.20;99.90
3478;DHT22;37937;61.490;23.506;2023-01-15T07:55:27;2.10;99.90
3478;DHT22;37937;61.490;23.506;2023-01-15T07:57:53;2.10;99.90
3478;DHT22;37937;61.490;23.506;2023-01-15T08:00:20;2.10;99.90
3478;DHT22;37937;61.490;23.506;2023-01-15T08:02:46;2.10;99.90
3478;DHT22;37937;61.490;23.506;2023-01-15T08:05:14;2.10;99.90
3478;DHT22;37937;61.490;23.506;2023-01-15T08:07:40;2.10;99.90
3478;DHT22;37937;61.490;23.506;2023-01-15T08:10:07;2.10;99.90
3478;DHT22;37937;61.490;23.506;2023-01-15T08:12:33;2.10;99.90
3478;DHT22;37937;61.490;23.506;2023-01-15T08:15:17;2.10;99.90
3478;DHT22;37937;61.490;23.506;2023-01-15T08:17:43;2.00;99.90
3478;DHT22;37937;61.490;23.506;2023-01-15T08:20:19;2.00;99.90
3478;DHT22;37937;61.490;23.506;2023-01-15T08:22:46;2.00;99.90
3478;DHT22;37937;61.490;23.506;2023-01-15T08:25:13;1.90;99.90
3478;DHT22;37937;61.490;23.506;2023-01-15T08:27:39;1.90;99.90
3478;DHT22;37937;61.490;23.506;2023-01-15T08:30:05;1.90;99.90
3478;DHT22;37937;61.490;23.506;2023-01-15T08:32:31;1.80;99.90
3478;DHT22;37937;61.490;23.506;2023-01-15T08:34:57;1.80;99.90
3478;DHT22;37937;61.490;23.506;2023-01-15T08:37:22;1.80;99.90
3478;DHT22;37937;61.490;23.506;2023-01-15T08:39:48;1.70;99.90
3478;DHT22;37937;61.490;23.506;2023-01-15T08:42:16;1.70;99.90
3478;DHT22;37937;61.490;23.506;2023-01-15T08:44:41;1.70;99.90
3478;DHT22;37937;61.490;23.506;2023-01-15T08:47:07;1.70;99.90
3478;DHT22;37937;61.490;23.506;2023-01-15T08:49:32;1.70;99.90
3478;DHT22;37937;61.490;23.506;2023-01-15T08:51:58;1.70;99.90
3478;DHT22;37937;61.490;23.506;2023-01-15T08:54:25;1.60;99.90
3478;DHT22;37937;61.490;23.506;2023-01-15T08:56:50;1.70;99.90
3478;DHT22;37937;61.490;23.506;2023-01-15T08:59:16;1.60;99.90
3478;DHT22;37937;61.490;23.506;2023-01-15T09:01:42;1.60;99.90
3478;DHT22;37937;61.490;23.506;2023-01-15T09:04:12;1.60;99.90
3478;DHT22;37937;61.490;23.506;2023-01-15T09:06:37;1.60;99.90
3478;DHT22;37937;61.490;23.506;2023-01-15T09:09:03;1.60;99.90
3478;DHT22;37937;61.490;23.506;2023-01-15T09:11:29;1.50;99.90
3478;DHT22;37937;61.490;23.506;2023-01-15T09:13:54;1.50;99.90
3478;DHT22;37937;61.490;23.506;2023-01-15T09:16:20;1.50;99.90
3478;DHT22;37937;61.490;23.506;2023-01-15T09:18:46;1.50;99.90
3478;DHT22;37937;61.490;23.506;2023-01-15T09:21:11;1.50;99.90
3478;DHT22;37937;61.490;23.506;2023-01-15T09:23:37;1.40;99.90
3478;DHT22;37937;61.490;23.506;2023-01-15T09:26:04;1.40;99.90
3478;DHT22;37937;61.490;23.506;2023-01-15T09:28:30;1.40;99.90
3478;DHT22;37937;61.490;23.506;2023-01-15T09:30:56;1.40;99.90
3478;DHT22;37937;61.490;23.506;2023-01-15T09:33:22;1.40;99.90
3478;DHT22;37937;61.490;23.506;2023-01-15T09:35:47;1.30;99.90
3478;DHT22;37937;61.490;23.506;2023-01-15T09:38:14;1.30;99.90
3478;DHT22;37937;61.490;23.506;2023-01-15T09:43:22;1.30;99.90
3478;DHT22;37937;61.490;23.506;2023-01-15T09:52:03;1.20;99.90
3478;DHT22;37937;61.490;23.506;2023-01-15T09:56:41;1.10;99.90
3478;DHT22;37937;61.490;23.506;2023-01-15T09:59:17;1.10;99.90
3478;DHT22;37937;61.490;23.506;2023-01-15T10:01:43;1.10;99.90
3478;DHT22;37937;61.490;23.506;2023-01-15T10:06:40;1.10;99.90
3478;DHT22;37937;61.490;23.506;2023-01-15T10:09:14;1.10;99.90
3478;DHT22;37937;61.490;23.506;2023-01-15T10:11:53;1.10;99.90
3478;DHT22;37937;61.490;23.506;2023-01-15T10:17:18;1.10;99.90
3478;DHT22;37937;61.490;23.506;2023-01-15T10:19:45;1.10;99.90
3478;DHT22;37937;61.490;23.506;2023-01-15T10:22:36;1.10;99.90
3478;DHT22;37937;61.490;23.506;2023-01-15T10:24:56;1.10;99.90
3478;DHT22;37937;61.490;23.506;2023-01-15T10:27:23;1.10;99.90
3478;DHT22;37937;61.490;23.506;2023-01-15T10:32:24;1.00;99.90
3478;DHT22;37937;61.490;23.506;2023-01-15T10:45:00;1.00;99.90
3478;DHT22;37937;61.490;23.506;2023-01-15T10:47:33;1.10;99.90
3478;DHT22;37937;61.490;23.506;2023-01-15T10:50:00;1.10;99.90
3478;DHT22;37937;61.490;23.506;2023-01-15T10:52:30;1.00;99.90
3478;DHT22;37937;61.490;23.506;2023-01-15T10:55:06;1.00;99.90
3478;DHT22;37937;61.490;23.506;2023-01-15T11:00:23;1.00;99.90
3478;DHT22;37937;61.490;23.506;2023-01-15T11:02:53;1.10;99.90
3478;DHT22;37937;61.490;23.506;2023-01-15T11:05:21;1.10;99.90
3478;DHT22;37937;61.490;23.506;2023-01-15T11:07:48;1.10;99.90
3478;DHT22;37937;61.490;23.506;2023-01-15T11:10:15;1.20;99.90
3478;DHT22;37937;61.490;23.506;2023-01-15T11:12:47;1.20;99.90
3478;DHT22;37937;61.490;23.506;2023-01-15T11:15:32;1.20;99.90
3478;DHT22;37937;61.490;23.506;2023-01-15T11:18:20;1.20;99.90
3478;DHT22;37937;61.490;23.506;2023-01-15T11:21:13;1.20;99.90
3478;DHT22;37937;61.490;23.506;2023-01-15T11:23:39;1.20;99.90
3478;DHT22;37937;61.490;23.506;2023-01-15T11:26:05;1.20;99.90
3478;DHT22;37937;61.490;23.506;2023-01-15T11:30:56;1.30;99.90
3478;DHT22;37937;61.490;23.506;2023-01-15T11:33:24;1.30;99.90
3478;DHT22;37937;61.490;23.506;2023-01-15T11:35:53;1.30;99.90
3478;DHT22;37937;61.490;23.506;2023-01-15T11:41:15;1.30;99.90
3478;DHT22;37937;61.490;23.506;2023-01-15T11:43:43;1.30;99.90
3478;DHT22;37937;61.490;23.506;2023-01-15T11:46:36;1.30;99.90
3478;DHT22;37937;61.490;23.506;2023-01-15T11:49:20;1.40;99.90
3478;DHT22;37937;61.490;23.506;2023-01-15T11:52:05;1.30;99.90
3478;DHT22;37937;61.490;23.506;2023-01-15T11:54:35;1.40;99.90
3478;DHT22;37937;61.490;23.506;2023-01-15T11:57:01;1.40;99.90
3478;DHT22;37937;61.490;23.506;2023-01-15T11:59:28;1.40;99.90
3478;DHT22;37937;61.490;23.506;2023-01-15T12:01:54;1.40;99.90
3478;DHT22;37937;61.490;23.506;2023-01-15T12:04:26;1.40;99.90
3478;DHT22;37937;61.490;23.506;2023-01-15T12:06:53;1.40;99.90
3478;DHT22;37937;61.490;23.506;2023-01-15T12:29:45;1.50;99.90
3478;DHT22;37937;61.490;23.506;2023-01-15T12:32:15;1.50;99.90
3478;DHT22;37937;61.490;23.506;2023-01-15T12:34:44;1.50;99.90
3478;DHT22;37937;61.490;23.506;2023-01-15T12:37:22;1.50;99.90
3478;DHT22;37937;61.490;23.506;2023-01-15T12:40:00;1.60;99.90
3478;DHT22;37937;61.490;23.506;2023-01-15T12:42:28;1.60;99.90
3478;DHT22;37937;61.490;23.506;2023-01-15T12:45:17;1.60;99.90
3478;DHT22;37937;61.490;23.506;2023-01-15T12:47:53;1.70;99.90
3478;DHT22;37937;61.490;23.506;2023-01-15T12:52:47;1.70;99.90
3478;DHT22;37937;61.490;23.506;2023-01-15T12:55:18;1.70;99.90
3478;DHT22;37937;61.490;23.506;2023-01-15T12:57:48;1.70;99.90
3478;DHT22;37937;61.490;23.506;2023-01-15T13:00:19;1.70;99.90
3478;DHT22;37937;61.490;23.506;2023-01-15T13:02:53;1.70;99.90
3478;DHT22;37937;61.490;23.506;2023-01-15T13:07:50;1.80;99.90
3478;DHT22;37937;61.490;23.506;2023-01-15T13:10:19;1.80;99.90
3478;DHT22;37937;61.490;23.506;2023-01-15T13:12:46;1.80;99.90
3478;DHT22;37937;61.490;23.506;2023-01-15T13:15:12;1.80;99.90
3478;DHT22;37937;61.490;23.506;2023-01-15T13:23:08;1.90;99.90
3478;DHT22;37937;61.490;23.506;2023-01-15T13:36:15;1.90;99.90
3478;DHT22;37937;61.490;23.506;2023-01-15T13:38:45;2.00;99.90
3478;DHT22;37937;61.490;23.506;2023-01-15T13:41:16;2.00;99.90
3478;DHT22;37937;61.490;23.506;2023-01-15T13:44:02;2.00;99.90
3478;DHT22;37937;61.490;23.506;2023-01-15T13:46:28;2.00;99.90
3478;DHT22;37937;61.490;23.506;2023-01-15T13:48:54;2.10;99.90
3478;DHT22;37937;61.490;23.506;2023-01-15T13:51:32;2.00;99.90
3478;DHT22;37937;61.490;23.506;2023-01-15T13:54:14;2.10;99.90
3478;DHT22;37937;61.490;23.506;2023-01-15T13:56:41;2.10;99.90
3478;DHT22;37937;61.490;23.506;2023-01-15T14:01:52;2.10;99.90
3478;DHT22;37937;61.490;23.506;2023-01-15T14:04:30;2.10;99.90
3478;DHT22;37937;61.490;23.506;2023-01-15T14:06:56;2.10;99.90
3478;DHT22;37937;61.490;23.506;2023-01-15T14:24:45;2.30;99.90
3478;DHT22;37937;61.490;23.506;2023-01-15T14:29:43;2.30;99.90
3478;DHT22;37937;61.490;23.506;2023-01-15T14:34:39;2.30;99.90
3478;DHT22;37937;61.490;23.506;2023-01-15T14:37:06;2.30;99.90
3478;DHT22;37937;61.490;23.506;2023-01-15T14:39:47;2.30;99.90
3478;DHT22;37937;61.490;23.506;2023-01-15T14:45:02;2.40;99.90
3478;DHT22;37937;61.490;23.506;2023-01-15T14:47:42;2.40;99.90
3478;DHT22;37937;61.490;23.506;2023-01-15T14:52:58;2.40;99.90
3478;DHT22;37937;61.490;23.506;2023-01-15T14:55:24;2.40;99.90
3478;DHT22;37937;61.490;23.506;2023-01-15T14:57:53;2.40;99.90
3478;DHT22;37937;61.490;23.506;2023-01-15T15:00:20;2.40;99.90
3478;DHT22;37937;61.490;23.506;2023-01-15T15:02:47;2.50;99.90
3478;DHT22;37937;61.490;23.506;2023-01-15T15:05:14;2.50;99.90
3478;DHT22;37937;61.490;23.506;2023-01-15T15:07:41;2.50;99.90
3478;DHT22;37937;61.490;23.506;2023-01-15T15:10:11;2.50;99.90
3478;DHT22;37937;61.490;23.506;2023-01-15T15:18:01;2.50;99.90
3478;DHT22;37937;61.490;23.506;2023-01-15T15:22:57;2.60;99.90
3478;DHT22;37937;61.490;23.506;2023-01-15T15:25:26;2.60;99.90
3478;DHT22;37937;61.490;23.506;2023-01-15T15:28:07;2.60;99.90
3478;DHT22;37937;61.490;23.506;2023-01-15T15:30:34;2.60;99.90
3478;DHT22;37937;61.490;23.506;2023-01-15T15:33:01;2.60;99.90
3478;DHT22;37937;61.490;23.506;2023-01-15T15:35:28;2.60;99.90
3478;DHT22;37937;61.490;23.506;2023-01-15T15:37:55;2.60;99.90
3478;DHT22;37937;61.490;23.506;2023-01-15T15:40:29;2.60;99.90
3478;DHT22;37937;61.490;23.506;2023-01-15T15:43:03;2.60;99.90
3478;DHT22;37937;61.490;23.506;2023-01-15T15:45:52;2.50;99.90
3478;DHT22;37937;61.490;23.506;2023-01-15T15:48:36;2.60;99.90
3478;DHT22;37937;61.490;23.506;2023-01-15T15:54:03;2.60;99.90
3478;DHT22;37937;61.490;23.506;2023-01-15T15:56:30;2.60;99.90
3478;DHT22;37937;61.490;23.506;2023-01-15T15:58:56;2.60;99.90
3478;DHT22;37937;61.490;23.506;2023-01-15T16:01:23;2.60;99.90
3478;DHT22;37937;61.490;23.506;2023-01-15T16:03:50;2.60;99.90
3478;DHT22;37937;61.490;23.506;2023-01-15T16:06:20;2.60;99.90
3478;DHT22;37937;61.490;23.506;2023-01-15T16:08:54;2.60;99.90
3478;DHT22;37937;61.490;23.506;2023-01-15T16:11:20;2.60;99.90
3478;DHT22;37937;61.490;23.506;2023-01-15T16:13:49;2.60;99.90
3478;DHT22;37937;61.490;23.506;2023-01-15T16:16:15;2.60;99.90
3478;DHT22;37937;61.490;23.506;2023-01-15T16:18:43;2.60;99.90
3478;DHT22;37937;61.490;23.506;2023-01-15T16:21:10;2.60;99.90
3478;DHT22;37937;61.490;23.506;2023-01-15T16:23:40;2.60;99.90
3478;DHT22;37937;61.490;23.506;2023-01-15T16:28:42;2.60;99.90
3478;DHT22;37937;61.490;23.506;2023-01-15T16:31:09;2.60;99.90
3478;DHT22;37937;61.490;23.506;2023-01-15T16:33:36;2.60;99.90
3478;DHT22;37937;61.490;23.506;2023-01-15T16:36:03;2.60;99.90
3478;DHT22;37937;61.490;23.506;2023-01-15T16:38:39;2.50;99.90
3478;DHT22;37937;61.490;23.506;2023-01-15T16:41:06;2.60;99.90
3478;DHT22;37937;61.490;23.506;2023-01-15T16:43:31;2.60;99.90
3478;DHT22;37937;61.490;23.506;2023-01-15T16:46:16;2.60;99.90
3478;DHT22;37937;61.490;23.506;2023-01-15T16:48:44;2.60;99.90
3478;DHT22;37937;61.490;23.506;2023-01-15T16:51:34;2.60;99.90
3478;DHT22;37937;61.490;23.506;2023-01-15T16:54:03;2.60;99.90
3478;DHT22;37937;61.490;23.506;2023-01-15T16:59:02;2.60;99.90
3478;DHT22;37937;61.490;23.506;2023-01-15T17:01:32;2.60;99.90
3478;DHT22;37937;61.490;23.506;2023-01-15T17:03:59;2.60;99.90
3478;DHT22;37937;61.490;23.506;2023-01-15T17:06:26;2.60;99.90
3478;DHT22;37937;61.490;23.506;2023-01-15T17:08:52;2.60;99.90
3478;DHT22;37937;61.490;23.506;2023-01-15T17:13:44;2.50;99.90
3478;DHT22;37937;61.490;23.506;2023-01-15T17:16:19;2.50;99.90
3478;DHT22;37937;61.490;23.506;2023-01-15T17:18:45;2.40;99.90
3478;DHT22;37937;61.490;23.506;2023-01-15T17:21:15;2.50;99.90
3478;DHT22;37937;61.490;23.506;2023-01-15T17:23:42;2.50;99.90
3478;DHT22;37937;61.490;23.506;2023-01-15T17:26:18;2.50;99.90
3478;DHT22;37937;61.490;23.506;2023-01-15T17:28:45;2.50;99.90
3478;DHT22;37937;61.490;23.506;2023-01-15T17:31:33;2.40;99.90
3478;DHT22;37937;61.490;23.506;2023-01-15T17:33:57;2.40;99.90
3478;DHT22;37937;61.490;23.506;2023-01-15T17:36:23;2.40;99.90
3478;DHT22;37937;61.490;23.506;2023-01-15T17:38:49;2.40;99.90
3478;DHT22;37937;61.490;23.506;2023-01-15T17:41:15;2.40;99.90
3478;DHT22;37937;61.490;23.506;2023-01-15T17:43:41;2.40;99.90
3478;DHT22;37937;61.490;23.506;2023-01-15T17:46:07;2.40;99.90
3478;DHT22;37937;61.490;23.506;2023-01-15T17:48:33;2.40;99.90
3478;DHT22;37937;61.490;23.506;2023-01-15T17:50:59;2.40;99.90
3478;DHT22;37937;61.490;23.506;2023-01-15T17:53:25;2.50;99.90
3478;DHT22;37937;61.490;23.506;2023-01-15T17:55:51;2.50;99.90
3478;DHT22;37937;61.490;23.506;2023-01-15T17:58:35;2.50;99.90
3478;DHT22;37937;61.490;23.506;2023-01-15T18:01:20;2.50;99.90
3478;DHT22;37937;61.490;23.506;2023-01-15T18:04:08;2.50;99.90
3478;DHT22;37937;61.490;23.506;2023-01-15T18:06:57;2.50;99.90
3478;DHT22;37937;61.490;23.506;2023-01-15T18:09:25;2.50;99.90
3478;DHT22;37937;61.490;23.506;2023-01-15T18:11:52;2.50;99.90
3478;DHT22;37937;61.490;23.506;2023-01-15T18:14:18;2.50;99.90
3478;DHT22;37937;61.490;23.506;2023-01-15T18:16:43;2.50;99.90
3478;DHT22;37937;61.490;23.506;2023-01-15T18:19:09;2.50;99.90
3478;DHT22;37937;61.490;23.506;2023-01-15T18:21:38;2.60;99.90
3478;DHT22;37937;61.490;23.506;2023-01-15T18:24:04;2.60;99.90
3478;DHT22;37937;61.490;23.506;2023-01-15T18:26:30;2.50;99.90
3478;DHT22;37937;61.490;23.506;2023-01-15T18:28:55;2.50;99.90
3478;DHT22;37937;61.490;23.506;2023-01-15T18:31:21;2.60;99.90
3478;DHT22;37937;61.490;23.506;2023-01-15T18:33:47;2.50;99.90
3478;DHT22;37937;61.490;23.506;2023-01-15T18:36:12;2.50;99.90